tititudorancea.com
Station Historical Data
Daily Summary for February 16, 2018 Units:  Metric    English   Both
« Previous Day
Next Day »
Daily Weekly Monthly Yearly Custom
  High: Low: Average:
Temperature: -17.8 °C 12.9 °C 17.1 °C
Dew Point: -17.8 °C 6.2 °C 9.5 °C
Humidity: Humidity % 32 % 65 %
Wind Speed: 0 km/h 0 km/h 8.7 km/h
Wind Gust: 0 km/h - -
Wind:- - SW
Pressure: 0 hPa 1011.1 hPa -
Precipitation: 0.51 mm    
Historical Graphs
 
 
Ararat weather Find more about Weather in Ararat, AU


 



 


Tabular Data for February 16, 2018
Time Temperature Dew Point Pressure Wind Wind Speed Wind Gust Humidity Rainfall Rate (Hourly)
-17.8 °C -17.8 °C 0 hPa Calm     Humidity % 0 mm
00:01 15.4 °C 12.4 °C 1011.7 hPa SW 7.9 km/h 9.3 km/h 82 % 0 mm
00:06 15.5 °C 12.4 °C 1012.1 hPa North 5.5 km/h 9.3 km/h 82 % 0 mm
00:11 15.6 °C 12.5 °C 1012.1 hPa SW 5.8 km/h 7.4 km/h 82 % 0 mm
00:16 15.6 °C 12.3 °C 1012.1 hPa North 8.5 km/h 16.7 km/h 81 % 0 mm
00:21 15.7 °C 12.2 °C 1012.1 hPa SW 6.6 km/h 11.1 km/h 80 % 0 mm
00:26 15.8 °C 12.3 °C 1012.1 hPa North 7.6 km/h 9.7 km/h 80 % 0 mm
00:31 15.8 °C 12.3 °C 1012.1 hPa WSW 6.1 km/h 12.9 km/h 80 % 0 mm
00:36 15.8 °C 12.2 °C 1012.1 hPa SW 8.4 km/h 9.3 km/h 79 % 0 mm
00:41 15.8 °C 12.2 °C 1012.1 hPa North 5.1 km/h 9.3 km/h 79 % 0 mm
00:46 15.9 °C 12.2 °C 1011.7 hPa WSW 5 km/h 8 km/h 79 % 0 mm
00:51 15.8 °C 12.4 °C 1012.1 hPa North 6 km/h 9.3 km/h 80 % 0 mm
00:56 15.8 °C 12.3 °C 1012.1 hPa WSW 9.8 km/h 13 km/h 80 % 0 mm
01:01 15.6 °C 12.3 °C 1011.7 hPa North 6.8 km/h 11.1 km/h 81 % 0 mm
01:06 15.5 °C 12.4 °C 1012.1 hPa SW 9 km/h 9 km/h 82 % 0 mm
01:11 15.4 °C 12.3 °C 1011.7 hPa North 5.8 km/h 11.1 km/h 82 % 0 mm
01:16 15.3 °C 12.2 °C 1011.7 hPa SSW 12.2 km/h 13 km/h 82 % 0 mm
01:21 15.1 °C 12.2 °C 1011.7 hPa SSW 10.9 km/h 14.8 km/h 83 % 0 mm
01:26 14.9 °C 12.2 °C 1011.7 hPa North 9.5 km/h 14.8 km/h 84 % 0 mm
01:31 14.7 °C 12.2 °C 1011.7 hPa SSW 3.7 km/h 5.6 km/h 85 % 0 mm
01:36 14.6 °C 12.1 °C 1011.7 hPa SSW 3.9 km/h 7.4 km/h 85 % 0 mm
01:41 14.5 °C 12.2 °C 1011.7 hPa North 2.6 km/h 2.6 km/h 86 % 0 mm
01:46 14.4 °C 12.1 °C 1011.7 hPa Calm     86 % 0 mm
01:51 14.2 °C 11.9 °C 1011.7 hPa Calm     86 % 0 mm
01:56 14.2 °C 12.1 °C 1011.7 hPa Calm     87 % 0 mm
02:01 14 °C 11.9 °C 1011.7 hPa Calm   1.6 km/h 87 % 0 mm
02:06 13.9 °C 11.8 °C 1011.7 hPa Calm     87 % 0 mm
02:11 13.8 °C 11.7 °C 1011.7 hPa Calm     87 % 0 mm
02:16 13.7 °C 11.8 °C 1011.7 hPa Calm     88 % 0 mm
02:21 13.6 °C 11.6 °C 1011.4 hPa SSW 3.4 km/h 7.4 km/h 88 % 0 mm
02:26 13.6 °C 11.8 °C 1011.4 hPa North 6.3 km/h 6.3 km/h 89 % 0 mm
02:31 13.7 °C 11.9 °C 1011.4 hPa SSW 9.3 km/h 14.5 km/h 89 % 0 mm
02:36 13.9 °C 12.2 °C 1011.4 hPa North 8.7 km/h 14.8 km/h 89 % 0 mm
02:41 14.1 °C 12.2 °C 1011.4 hPa North 8.2 km/h 11.1 km/h 88 % 0 mm
02:46 14.2 °C 12.2 °C 1011.1 hPa SSW 6.9 km/h 16.7 km/h 88 % 0 mm
02:51 14.2 °C 12.1 °C 1011.1 hPa North 10.5 km/h 13 km/h 87 % 0 mm
02:56 14.2 °C 12.1 °C 1011.1 hPa North 6.9 km/h 9.3 km/h 87 % 0 mm
03:01 14.2 °C 12.1 °C 1011.1 hPa North 6.1 km/h 9.3 km/h 87 % 0 mm
03:06 14.2 °C 12.1 °C 1011.1 hPa North 5.3 km/h 6.4 km/h 87 % 0 mm
03:11 14.2 °C 12.1 °C 1011.1 hPa North 3.1 km/h 5.6 km/h 87 % 0 mm
03:16 14.2 °C 12.1 °C 1011.1 hPa SSW 4.3 km/h 5.6 km/h 87 % 0 mm
03:21 14.2 °C 12.3 °C 1011.1 hPa North 5.3 km/h 5.6 km/h 88 % 0 mm
03:26 14.3 °C 12.3 °C 1011.1 hPa North 6.4 km/h 11.1 km/h 88 % 0 mm
03:31 14.2 °C 12.2 °C 1011.1 hPa SSW 6.3 km/h 9.3 km/h 88 % 0 mm
03:36 14.1 °C 12.3 °C 1011.1 hPa SSW 6.8 km/h 7.4 km/h 89 % 0 mm
03:41 13.9 °C 12.2 °C 1011.1 hPa North 8.5 km/h 11.1 km/h 89 % 0 mm
03:46 13.8 °C 12.2 °C 1011.1 hPa SW 6.4 km/h 8 km/h 90 % 0 mm
03:51 13.8 °C 12.2 °C 1011.1 hPa SW 3.4 km/h 5.6 km/h 90 % 0 mm
03:56 13.8 °C 12.2 °C 1011.1 hPa North 7.1 km/h 13 km/h 90 % 0 mm
04:01 13.8 °C 12.3 °C 1011.1 hPa SW 5 km/h 9.3 km/h 91 % 0 mm
04:06 13.8 °C 12.3 °C 1011.1 hPa North 6 km/h 9.3 km/h 91 % 0 mm
04:11 13.7 °C 12.3 °C 1011.4 hPa SW 7.6 km/h 13 km/h 91 % 0 mm
04:16 13.7 °C 12.2 °C 1011.4 hPa North 8.4 km/h 9.3 km/h 91 % 0 mm
04:21 13.7 °C 12.2 °C 1011.4 hPa SW 5.5 km/h 11.1 km/h 91 % 0 mm
04:26 13.6 °C 12.3 °C 1011.4 hPa SW 4.5 km/h 8 km/h 92 % 0 mm
04:31 13.6 °C 12.3 °C 1011.4 hPa SW 6.3 km/h 9.3 km/h 92 % 0 mm
04:36 13.6 °C 12.3 °C 1011.4 hPa North 4 km/h 5.6 km/h 92 % 0 mm
04:41 13.5 °C 12.2 °C 1011.4 hPa SW 4.7 km/h 6.4 km/h 92 % 0 mm
04:46 13.5 °C 12.2 °C 1011.7 hPa SW 6.1 km/h 8 km/h 92 % 0 mm
04:51 13.4 °C 12.2 °C 1011.7 hPa SW 6.9 km/h 11.1 km/h 92 % 0.25 mm
04:56 13.4 °C 12.1 °C 1011.7 hPa SW 8.7 km/h 11.1 km/h 92 % 0.25 mm
05:01 13.4 °C 12.1 °C 1011.7 hPa North 6.6 km/h 9.3 km/h 92 % 0.25 mm
05:06 13.3 °C 12.2 °C 1011.7 hPa SW 3.1 km/h 7.4 km/h 93 % 0.25 mm
05:11 13.2 °C 12.1 °C 1011.7 hPa SW 7.9 km/h 11.1 km/h 93 % 0.25 mm
05:16 13.2 °C 12.1 °C 1011.7 hPa SW 9.7 km/h 13 km/h 93 % 0.25 mm
05:21 13.2 °C 12.1 °C 1011.7 hPa SW 5.5 km/h 7.4 km/h 93 % 0.25 mm
05:26 13.2 °C 12.1 °C 1011.7 hPa SW 7.2 km/h 9.3 km/h 93 % 0.25 mm
05:31 13.2 °C 12.1 °C 1011.7 hPa SW 4.2 km/h 6.4 km/h 93 % 0.25 mm
05:36 13.1 °C 12 °C 1011.7 hPa SW 7.4 km/h 11.1 km/h 93 % 0.25 mm
05:41 13.1 °C 12 °C 1012.1 hPa North 4.7 km/h 9.3 km/h 93 % 0.25 mm
05:46 13.2 °C 12.1 °C 1012.1 hPa SW 6 km/h 7.4 km/h 93 % 0.51 mm
05:51 13.2 °C 12.1 °C 1012.1 hPa SW 6.9 km/h 9.7 km/h 93 % 0.25 mm
05:56 13.3 °C 12.2 °C 1012.1 hPa SW 7.1 km/h 11.1 km/h 93 % 0.25 mm
06:01 13.3 °C 12.2 °C 1012.1 hPa North 9.2 km/h 14.8 km/h 93 % 0.25 mm
06:06 13.3 °C 12 °C 1012.1 hPa North 13.4 km/h 18.5 km/h 92 % 0.25 mm
06:11 13.3 °C 12 °C 1012.1 hPa SW 11.6 km/h 22.2 km/h 92 % 0.25 mm
06:16 13.2 °C 11.9 °C 1012.1 hPa SSW 19.2 km/h 24.1 km/h 92 % 0.25 mm
06:21 13.1 °C 11.8 °C 1012.1 hPa SSW 9.5 km/h 13 km/h 92 % 0.25 mm
06:26 13.1 °C 11.8 °C 1012.4 hPa SW 5.5 km/h 11.3 km/h 92 % 0.25 mm
06:31 13 °C 11.7 °C 1012.4 hPa SW 9.8 km/h 12.9 km/h 92 % 0.25 mm
06:36 12.9 °C 11.7 °C 1012.4 hPa SSW 9.2 km/h 16.1 km/h 92 % 0.25 mm
06:41 13 °C 11.7 °C 1012.4 hPa SSW 7.1 km/h 9.7 km/h 92 % 0.25 mm
06:46 13 °C 11.6 °C 1012.1 hPa SSW 7.2 km/h 11.3 km/h 91 % 0 mm
06:51 13 °C 11.6 °C 1012.1 hPa SSW 6.1 km/h 7.4 km/h 91 % 0 mm
06:56 13.1 °C 11.8 °C 1012.1 hPa SSW 5.1 km/h 7.4 km/h 92 % 0 mm
07:01 13.1 °C 11.8 °C 1012.1 hPa SSW 2.1 km/h 7.4 km/h 92 % 0 mm
07:06 13.1 °C 11.8 °C 1012.4 hPa North 5.1 km/h 9.3 km/h 92 % 0 mm
07:11 13.1 °C 11.8 °C 1012.4 hPa North 1.6 km/h 5.6 km/h 92 % 0 mm
07:16 13.1 °C 11.8 °C 1012.4 hPa North 4.7 km/h 7.4 km/h 92 % 0 mm
07:21 13.1 °C 11.8 °C 1012.4 hPa SSW 1.6 km/h 5.6 km/h 92 % 0 mm
07:26 13.1 °C 11.8 °C 1012.4 hPa SSW 3.4 km/h 5.6 km/h 92 % 0 mm
07:31 13.1 °C 11.8 °C 1012.4 hPa North 0.8 km/h 3.7 km/h 92 % 0 mm
07:36 13 °C 11.7 °C 1012.4 hPa SSW 8.7 km/h 11.1 km/h 92 % 0 mm
07:41 13 °C 11.7 °C 1012.4 hPa North 6.9 km/h 9.7 km/h 92 % 0 mm
07:46 13 °C 11.7 °C 1012.8 hPa SSW 7.9 km/h 12.9 km/h 92 % 0 mm
07:51 13 °C 11.7 °C 1012.8 hPa North 7.1 km/h 14.5 km/h 92 % 0 mm
07:56 13.1 °C 11.8 °C 1012.8 hPa SSW 6.3 km/h 8 km/h 92 % 0 mm
08:01 13.1 °C 11.6 °C 1012.8 hPa North 8.2 km/h 14.8 km/h 91 % 0 mm
08:06 13.1 °C 11.7 °C 1013.1 hPa North 2.7 km/h 9.3 km/h 91 % 0 mm
08:11 13.2 °C 11.7 °C 1013.1 hPa North 5.5 km/h 9.7 km/h 91 % 0 mm
08:16 13.2 °C 11.8 °C 1013.1 hPa South 7.9 km/h 18.5 km/h 91 % 0 mm
08:21 13.2 °C 11.6 °C 1013.1 hPa North 8.2 km/h 14.8 km/h 90 % 0 mm
08:26 13.3 °C 11.7 °C 1013.1 hPa South 8.9 km/h 13 km/h 90 % 0 mm
08:31 13.5 °C 11.9 °C 1013.1 hPa South 2.9 km/h 7.4 km/h 90 % 0 mm
08:36 13.7 °C 12.1 °C 1013.4 hPa South 9.3 km/h 12.9 km/h 90 % 0 mm
08:41 13.8 °C 12 °C 1013.4 hPa South 7.2 km/h 11.1 km/h 89 % 0 mm
08:46 14 °C 12.1 °C 1013.4 hPa SSW 10 km/h 18.5 km/h 88 % 0 mm
08:51 14.1 °C 11.9 °C 1013.4 hPa SSW 6.8 km/h 11.3 km/h 87 % 0 mm
08:56 13.9 °C 11.7 °C 1013.4 hPa SSW 10.3 km/h 18.5 km/h 86 % 0 mm
09:01 13.9 °C 11.4 °C 1013.8 hPa SSW 16.3 km/h 20.4 km/h 85 % 0 mm
09:06 13.8 °C 11.2 °C 1013.8 hPa SSW 9.3 km/h 18.5 km/h 84 % 0 mm
09:11 13.9 °C 11.4 °C 1013.8 hPa North 6.9 km/h 13 km/h 85 % 0 mm
09:16 13.9 °C 11.1 °C 1013.8 hPa South 8 km/h 13 km/h 83 % 0 mm
09:21 13.9 °C 11.1 °C 1013.8 hPa North 6.8 km/h 14.8 km/h 83 % 0 mm
09:26 13.9 °C 11.1 °C 1013.8 hPa SSW 9.3 km/h 13 km/h 83 % 0 mm
09:31 14.1 °C 10.8 °C 1013.8 hPa South 14.2 km/h 20.9 km/h 81 % 0 mm
09:32 14.1 °C 10.8 °C 1013.8 hPa South 15.1 km/h 20.9 km/h 81 % 0 mm
09:37 14 °C 10.6 °C 1013.8 hPa South 15.1 km/h 18.5 km/h 80 % 0 mm
09:42 14 °C 10.2 °C 1014.1 hPa SSW 13 km/h 18.5 km/h 78 % 0 mm
09:47 14.1 °C 10.5 °C 1013.8 hPa SSW 9.8 km/h 14.8 km/h 79 % 0 mm
09:52 14.3 °C 10.7 °C 1014.1 hPa SSW 18.3 km/h 24.1 km/h 79 % 0 mm
09:57 14.5 °C 10.5 °C 1013.8 hPa South 10.3 km/h 13 km/h 77 % 0 mm
10:02 14.7 °C 10.5 °C 1014.1 hPa South 7.7 km/h 13 km/h 76 % 0 mm
10:07 14.9 °C 10.5 °C 1014.1 hPa South 10 km/h 14.8 km/h 75 % 0 mm
10:12 14.9 °C 10.5 °C 1014.1 hPa North 10.9 km/h 20.9 km/h 75 % 0 mm
10:17 14.8 °C 10 °C 1014.1 hPa SW 11.6 km/h 14.8 km/h 73 % 0 mm
10:22 15.1 °C 10.4 °C 1014.1 hPa SSW 10.3 km/h 14.8 km/h 74 % 0 mm
10:27 15.1 °C 10.1 °C 1014.1 hPa SSW 10 km/h 16.7 km/h 72 % 0 mm
10:32 15.3 °C 10.3 °C 1014.1 hPa South 11.4 km/h 14.8 km/h 72 % 0 mm
10:37 15.5 °C 10.3 °C 1014.1 hPa South 11.1 km/h 14.8 km/h 71 % 0 mm
10:42 15.8 °C 10.7 °C 1014.1 hPa SW 11.4 km/h 16.7 km/h 72 % 0 mm
10:47 15.8 °C 10.1 °C 1014.1 hPa South 10.8 km/h 17.7 km/h 69 % 0 mm
10:52 15.7 °C 10.3 °C 1014.4 hPa SSW 13.4 km/h 22.2 km/h 70 % 0 mm
10:57 15.9 °C 10.4 °C 1014.4 hPa SSW 14 km/h 22.5 km/h 70 % 0 mm
11:02 16.2 °C 10.3 °C 1014.4 hPa South 6.8 km/h 13 km/h 68 % 0 mm
11:07 16.2 °C 9.8 °C 1014.4 hPa SSW 19.5 km/h 25.9 km/h 66 % 0 mm
11:12 16.3 °C 10.1 °C 1014.4 hPa SSW 11.6 km/h 20.4 km/h 67 % 0 mm
11:17 16.4 °C 9.6 °C 1014.4 hPa North 13.7 km/h 20.4 km/h 64 % 0 mm
11:22 16.6 °C 9.9 °C 1014.4 hPa South 7.4 km/h 13 km/h 65 % 0 mm
11:27 17 °C 9.7 °C 1014.4 hPa SSW 9 km/h 13 km/h 62 % 0 mm
11:32 17.2 °C 9.9 °C 1014.4 hPa SW 15.4 km/h 24.1 km/h 62 % 0 mm
11:37 17.3 °C 9.4 °C 1014.4 hPa South 11.7 km/h 18.5 km/h 60 % 0 mm
11:42 17.2 °C 9.4 °C 1014.4 hPa South 9.7 km/h 20.4 km/h 60 % 0 mm
11:47 17.4 °C 9.8 °C 1014.4 hPa SSW 18.3 km/h 25.9 km/h 61 % 0 mm
11:52 17.2 °C 8.9 °C 1014.1 hPa South 11.1 km/h 18.5 km/h 58 % 0 mm
11:57 17.6 °C 9.2 °C 1014.1 hPa SW 18.2 km/h 22.2 km/h 58 % 0 mm
12:02 17.7 °C 9.6 °C 1014.1 hPa SSW 13.4 km/h 20.4 km/h 59 % 0 mm
12:07 17.7 °C 9.3 °C 1014.1 hPa SSW 13.2 km/h 20.4 km/h 58 % 0 mm
12:12 18 °C 8.8 °C 1014.1 hPa SSW 15 km/h 25.9 km/h 55 % 0 mm
12:17 18.1 °C 9.4 °C 1014.1 hPa SSE 13.7 km/h 27.8 km/h 57 % 0 mm
12:22 18.1 °C 9.2 °C 1014.1 hPa SW 10.1 km/h 20.9 km/h 56 % 0 mm
12:27 18.3 °C 8.6 °C 1014.1 hPa SSE 14.6 km/h 25.9 km/h 53 % 0 mm
12:32 18.5 °C 9.3 °C 1013.8 hPa South 10.5 km/h 17.7 km/h 55 % 0 mm
12:37 18.7 °C 8.4 °C 1013.8 hPa SW 16.6 km/h 22.2 km/h 51 % 0 mm
12:42 18.4 °C 7.5 °C 1013.8 hPa SW 18.2 km/h 24.1 km/h 49 % 0 mm
12:47 18.4 °C 7.8 °C 1013.8 hPa SW 4.8 km/h 11.1 km/h 50 % 0 mm
12:52 18.9 °C 8.2 °C 1013.8 hPa SSE 15.3 km/h 24.1 km/h 50 % 0 mm
12:57 19.1 °C 8.1 °C 1013.4 hPa SSE 11.6 km/h 16.1 km/h 49 % 0 mm
13:02 19.1 °C 7.5 °C 1013.4 hPa SSW 11.1 km/h 18.5 km/h 47 % 0 mm
13:07 19.3 °C 7.4 °C 1013.4 hPa SSW 13.5 km/h 18.5 km/h 46 % 0 mm
13:12 19.3 °C 8 °C 1013.4 hPa SSW 11.3 km/h 14.8 km/h 48 % 0 mm
13:17 19.5 °C 7.6 °C 1013.1 hPa South 15.9 km/h 22.2 km/h 46 % 0 mm
13:22 19.8 °C 7.8 °C 1013.1 hPa SSW 13.2 km/h 20.4 km/h 46 % 0 mm
13:27 19.7 °C 7.4 °C 1013.1 hPa SSW 16.3 km/h 22.2 km/h 45 % 0 mm
13:32 19.5 °C 7.6 °C 1013.1 hPa SSW 11.3 km/h 18.5 km/h 46 % 0 mm
13:37 19.8 °C 6.8 °C 1013.1 hPa WSW 10.8 km/h 16.7 km/h 43 % 0 mm
13:42 20.2 °C 7.5 °C 1013.1 hPa SSW 14 km/h 20.9 km/h 44 % 0 mm
13:47 20.1 °C 7.7 °C 1013.1 hPa SSW 6.9 km/h 14.8 km/h 45 % 0 mm
13:52 20.3 °C 7.3 °C 1013.1 hPa SW 15 km/h 18.5 km/h 43 % 0 mm
13:57 20.4 °C 6.7 °C 1013.1 hPa South 16.6 km/h 25.9 km/h 41 % 0 mm
14:02 20.4 °C 7.1 °C 1013.1 hPa SSW 18 km/h 24.1 km/h 42 % 0 mm
14:07 20.6 °C 7.2 °C 1013.1 hPa South 12.4 km/h 18.5 km/h 42 % 0 mm
14:12 20.7 °C 6.9 °C 1013.1 hPa SW 14.3 km/h 22.2 km/h 41 % 0 mm
14:17 20.7 °C 7.7 °C 1012.8 hPa WSW 9.7 km/h 16.7 km/h 43 % 0 mm
14:22 21.1 °C 7.3 °C 1012.8 hPa South 11.6 km/h 16.7 km/h 41 % 0 mm
14:27 21.3 °C 7.6 °C 1012.8 hPa SSW 14.8 km/h 22.2 km/h 41 % 0 mm
14:32 21.7 °C 7.5 °C 1012.8 hPa West 9.8 km/h 11.1 km/h 40 % 0 mm
14:37 21.7 °C 7.5 °C 1012.8 hPa SW 8.9 km/h 11.1 km/h 40 % 0 mm
14:42 21.9 °C 7.3 °C 1012.8 hPa SSW 12.1 km/h 16.7 km/h 39 % 0 mm
14:47 21.6 °C 6.7 °C 1012.8 hPa SW 11.6 km/h 18.5 km/h 38 % 0 mm
14:52 21.6 °C 7 °C 1012.4 hPa SSE 7.2 km/h 13 km/h 39 % 0 mm
14:57 21.7 °C 7.1 °C 1012.4 hPa SW 7.2 km/h 11.3 km/h 39 % 0 mm
15:02 21.8 °C 6.8 °C 1012.4 hPa SSW 9.8 km/h 13 km/h 38 % 0 mm
15:07 21.9 °C 7.3 °C 1012.1 hPa North 14.5 km/h 19.3 km/h 39 % 0 mm
15:12 21.9 °C 6.6 °C 1012.1 hPa SSW 13 km/h 20.4 km/h 37 % 0 mm
15:17 22.1 °C 7.1 °C 1012.1 hPa SSW 15.1 km/h 20.4 km/h 38 % 0 mm
15:22 22.3 °C 7.3 °C 1012.1 hPa SW 10 km/h 18.5 km/h 38 % 0 mm
15:27 22.3 °C 6.9 °C 1012.1 hPa SSW 6.4 km/h 9.7 km/h 37 % 0 mm
15:32 22.7 °C 6.8 °C 1012.1 hPa South 11.4 km/h 18.5 km/h 36 % 0 mm
15:37 22.6 °C 6.7 °C 1012.1 hPa South 9.5 km/h 13 km/h 36 % 0 mm
15:42 22.6 °C 7.2 °C 1012.1 hPa SSW 15.8 km/h 22.2 km/h 37 % 0 mm
15:47 22.6 °C 6.7 °C 1012.1 hPa SSE 13.8 km/h 18.5 km/h 36 % 0 mm
15:52 22.9 °C 7 °C 1012.1 hPa South 11.7 km/h 18.5 km/h 36 % 0 mm
15:57 22.9 °C 6.7 °C 1012.1 hPa SSE 5.5 km/h 9.3 km/h 35 % 0 mm
16:02 22.9 °C 7.1 °C 1012.1 hPa SSW 17.9 km/h 25.9 km/h 36 % 0 mm
16:07 22.7 °C 7.2 °C 1012.1 hPa SW 10.1 km/h 18.5 km/h 37 % 0 mm
16:12 23.1 °C 7.2 °C 1011.7 hPa SSE 9.8 km/h 11.1 km/h 36 % 0 mm
16:17 23.4 °C 6.2 °C 1011.7 hPa North 7.1 km/h 13 km/h 33 % 0 mm
16:22 23.5 °C 7.2 °C 1011.7 hPa SSE 12.6 km/h 18.5 km/h 35 % 0 mm
16:27 23.4 °C 7.1 °C 1011.7 hPa South 4.8 km/h 13 km/h 35 % 0 mm
16:32 23.3 °C 6.9 °C 1011.7 hPa SSE 13.4 km/h 16.1 km/h 35 % 0 mm
16:37 23.1 °C 6.8 °C 1011.7 hPa South 16.9 km/h 29.6 km/h 35 % 0 mm
16:42 23.2 °C 6.9 °C 1011.4 hPa South 9.3 km/h 11.1 km/h 35 % 0 mm
16:47 23.3 °C 6.6 °C 1011.4 hPa SSW 14.8 km/h 22.2 km/h 34 % 0 mm
16:52 23.2 °C 6.8 °C 1011.4 hPa SW 11.9 km/h 22.2 km/h 35 % 0 mm
16:57 23.3 °C 6.2 °C 1011.4 hPa WSW 9.8 km/h 14.8 km/h 33 % 0 mm
17:02 23.4 °C 6.2 °C 1011.4 hPa SSW 16.4 km/h 22.2 km/h 33 % 0 mm
17:07 23.2 °C 6.9 °C 1011.4 hPa SW 5.5 km/h 8 km/h 35 % 0 mm
17:12 23.3 °C 7.4 °C 1011.4 hPa South 11.9 km/h 18.5 km/h 36 % 0 mm
17:17 23.5 °C 7.2 °C 1011.4 hPa SSW 15.4 km/h 24.1 km/h 35 % 0 mm
17:22 23.4 °C 7.1 °C 1011.4 hPa SSW 9.8 km/h 16.7 km/h 35 % 0 mm
17:27 23.5 °C 6.7 °C 1011.4 hPa SE 10.1 km/h 14.8 km/h 34 % 0 mm
17:32 23.4 °C 7.1 °C 1011.4 hPa SSE 10.9 km/h 18.5 km/h 35 % 0 mm
17:37 23.5 °C 7.2 °C 1011.1 hPa SSW 13.5 km/h 18.5 km/h 35 % 0 mm
17:42 23.4 °C 6.7 °C 1011.4 hPa SSW 10.6 km/h 18.5 km/h 34 % 0 mm
17:47 23.4 °C 6.7 °C 1011.4 hPa SW 10.8 km/h 16.7 km/h 34 % 0 mm
17:52 23.7 °C 7.3 °C 1011.1 hPa South 7.9 km/h 13 km/h 35 % 0 mm
17:57 23.7 °C 6.5 °C 1011.1 hPa SSW 7.6 km/h 13 km/h 33 % 0 mm
18:02 24.2 °C 6.4 °C 1011.1 hPa SSW 5.5 km/h 5.6 km/h 32 % 0 mm
18:07 23.9 °C 6.2 °C 1011.1 hPa SW 10.1 km/h 18.5 km/h 32 % 0 mm
18:12 23.8 °C 6.6 °C 1011.1 hPa SW 6 km/h 11.3 km/h 33 % 0 mm
18:17 23.7 °C 6.4 °C 1011.1 hPa SSW 14.6 km/h 18.5 km/h 33 % 0 mm
18:22 23.5 °C 6.3 °C 1011.1 hPa SSW 6.6 km/h 9.3 km/h 33 % 0 mm
18:27 23.6 °C 6.8 °C 1011.1 hPa SSW 6.4 km/h 11.1 km/h 34 % 0 mm
18:32 23.6 °C 6.8 °C 1011.1 hPa SSW 1.8 km/h 5.6 km/h 34 % 0 mm
18:37 23.7 °C 6.4 °C 1011.1 hPa SSW 10.5 km/h 13 km/h 33 % 0 mm
18:42 23.7 °C 6.5 °C 1011.1 hPa SSW 10.1 km/h 11.1 km/h 33 % 0 mm
18:47 23.6 °C 6.3 °C 1011.1 hPa SSW 6.8 km/h 16.7 km/h 33 % 0 mm
18:52 23.5 °C 6.7 °C 1011.1 hPa South 7.1 km/h 9.3 km/h 34 % 0 mm
18:57 23.5 °C 6.3 °C 1011.1 hPa South 9.2 km/h 13 km/h 33 % 0 mm
19:02 23.4 °C 6.6 °C 1011.1 hPa SSW 9 km/h 14.8 km/h 34 % 0 mm
19:07 23.2 °C 6.9 °C 1011.1 hPa SSW 2.9 km/h 14.8 km/h 35 % 0 mm
19:12 23.2 °C 6.4 °C 1011.1 hPa South 9.3 km/h 18.5 km/h 34 % 0 mm
19:17 23.1 °C 6.3 °C 1011.1 hPa SSW 9.2 km/h 14.8 km/h 34 % 0 mm
19:22 22.9 °C 6.2 °C 1011.1 hPa SSW 10.1 km/h 14.8 km/h 34 % 0 mm
19:27 22.8 °C 6.5 °C 1011.1 hPa SSW 9.2 km/h 16.7 km/h 35 % 0 mm
19:32 22.8 °C 6.5 °C 1011.1 hPa South 7.9 km/h 9.3 km/h 35 % 0 mm
19:37 22.8 °C 6.5 °C 1011.4 hPa South 8 km/h 9.7 km/h 35 % 0 mm
19:42 22.7 °C 6.4 °C 1011.4 hPa South 3.9 km/h 7.4 km/h 35 % 0 mm
19:47 22.6 °C 6.3 °C 1011.4 hPa SSW 11.4 km/h 14.8 km/h 35 % 0 mm
19:52 22.3 °C 6.5 °C 1011.4 hPa SSW 10.1 km/h 13 km/h 36 % 0 mm
19:57 22.1 °C 6.3 °C 1011.4 hPa SSW 6.6 km/h 13 km/h 36 % 0 mm
20:03 21.9 °C 6.6 °C 1011.4 hPa South 6.9 km/h 16.7 km/h 37 % 0 mm
20:08 21.7 °C 6.3 °C 1011.4 hPa South 6 km/h 11.1 km/h 37 % 0 mm
20:13 21.4 °C 6.8 °C 1011.4 hPa South 8.7 km/h 18.5 km/h 39 % 0 mm
20:18 21 °C 7.6 °C 1011.7 hPa SSW 6.8 km/h 13 km/h 42 % 0 mm
20:23 20.7 °C 7.7 °C 1011.7 hPa South 8.4 km/h 13 km/h 43 % 0 mm
20:28 20.4 °C 7.7 °C 1011.7 hPa South 7.1 km/h 14.8 km/h 44 % 0 mm
20:33 20.2 °C 7.8 °C 1012.1 hPa South 5.1 km/h 9.3 km/h 45 % 0 mm
20:38 19.9 °C 7.9 °C 1012.1 hPa South 8.5 km/h 18.5 km/h 46 % 0 mm
20:43 19.6 °C 8 °C 1012.1 hPa South 4.2 km/h 9.3 km/h 47 % 0 mm
20:48 19.3 °C 8 °C 1012.1 hPa South 6 km/h 13 km/h 48 % 0 mm
20:53 18.9 °C 8 °C 1012.1 hPa South 8.4 km/h 11.1 km/h 49 % 0 mm
20:58 18.7 °C 8.1 °C 1012.1 hPa South 8 km/h 11.1 km/h 50 % 0 mm
21:03 18.4 °C 8.1 °C 1012.4 hPa South 8 km/h 9.3 km/h 51 % 0 mm
21:08 18.2 °C 7.9 °C 1012.1 hPa South 7.6 km/h 14.8 km/h 51 % 0 mm
21:13 17.9 °C 8.2 °C 1012.4 hPa South 8.9 km/h 13 km/h 53 % 0 mm
21:18 17.7 °C 8 °C 1012.4 hPa South 4.5 km/h 14.5 km/h 53 % 0 mm
21:23 17.4 °C 8.3 °C 1012.4 hPa South 6 km/h 9.3 km/h 55 % 0 mm
21:28 17.3 °C 8.4 °C 1012.4 hPa South 5.3 km/h 11.1 km/h 56 % 0 mm
21:33 17.1 °C 8.4 °C 1012.4 hPa South 6 km/h 11.1 km/h 57 % 0 mm
21:38 16.8 °C 8.5 °C 1012.4 hPa South 10.8 km/h 16.7 km/h 58 % 0 mm
21:43 16.6 °C 8.8 °C 1012.8 hPa South 6.9 km/h 11.1 km/h 60 % 0 mm
21:48 16.4 °C 8.8 °C 1012.8 hPa South 12.4 km/h 16.1 km/h 61 % 0 mm
21:53 16.2 °C 8.9 °C 1012.8 hPa South 6.8 km/h 12.9 km/h 62 % 0 mm
21:58 16.1 °C 9 °C 1012.8 hPa South 10.9 km/h 19.3 km/h 63 % 0 mm
22:03 15.8 °C 9.1 °C 1013.1 hPa South 7.6 km/h 14.8 km/h 64 % 0 mm
22:08 15.7 °C 9.1 °C 1013.1 hPa South 8.4 km/h 12.9 km/h 65 % 0 mm
22:13 15.5 °C 8.9 °C 1013.1 hPa South 8.7 km/h 13 km/h 65 % 0 mm
22:18 15.4 °C 9.1 °C 1013.1 hPa South 10.9 km/h 16.7 km/h 66 % 0 mm
22:23 15.2 °C 9.1 °C 1013.1 hPa South 9.2 km/h 13 km/h 67 % 0 mm
22:28 15.1 °C 9 °C 1013.1 hPa North 5.6 km/h 11.1 km/h 67 % 0 mm
22:33 15 °C 9.1 °C 1013.1 hPa South 5.3 km/h 13 km/h 68 % 0 mm
22:38 14.9 °C 9.2 °C 1013.1 hPa North 6.6 km/h 9.3 km/h 69 % 0 mm
22:43 14.8 °C 9.2 °C 1013.1 hPa South 7.6 km/h 8 km/h 69 % 0 mm
22:49 14.6 °C 9 °C 1013.1 hPa South 4.7 km/h 5.6 km/h 69 % 0 mm
22:54 14.5 °C 9.1 °C 1013.1 hPa South 5.6 km/h 9.3 km/h 70 % 0 mm
22:59 14.3 °C 9.2 °C 1013.1 hPa North 6.3 km/h 8 km/h 71 % 0 mm
23:04 14.2 °C 9.1 °C 1013.1 hPa South 1.8 km/h 9.3 km/h 71 % 0 mm
23:09 14.1 °C 8.9 °C 1013.1 hPa North 5.3 km/h 11.1 km/h 71 % 0 mm
23:14 13.9 °C 9 °C 1013.1 hPa South 5.5 km/h 9.3 km/h 72 % 0 mm
23:19 13.9 °C 8.9 °C 1012.8 hPa North 4 km/h 7.4 km/h 72 % 0 mm
23:24 13.7 °C 8.9 °C 1012.8 hPa South 5.1 km/h 9.3 km/h 73 % 0 mm
23:29 13.6 °C 8.8 °C 1012.8 hPa North 5.1 km/h 7.4 km/h 73 % 0 mm
23:34 13.5 °C 8.9 °C 1012.8 hPa North 6.1 km/h 9.3 km/h 74 % 0 mm
23:39 13.4 °C 8.8 °C 1012.8 hPa North 8.2 km/h 9.3 km/h 74 % 0 mm
23:44 13.3 °C 8.7 °C 1012.8 hPa South 7.1 km/h 9.7 km/h 74 % 0 mm
23:49 13.2 °C 8.8 °C 1012.8 hPa South 6.9 km/h 8 km/h 75 % 0 mm
23:54 13.1 °C 8.7 °C 1012.8 hPa South 6 km/h 9.3 km/h 75 % 0 mm
23:59 12.9 °C 8.8 °C 1013.1 hPa North 7.9 km/h 11.1 km/h 76 % 0 mm
Ararat Weather
Compliments of Weather Underground - 2.5 mb
Click here to send mail.


ABOUT

Live weather data from Ararat, Victoria, Australia, 3377
Data uploaded from Cumulus every 5 minutes to Weather Underground.
This site then downloads the raw data for formatting and display.
Metric and imperial data can be displayed. Graphs and historical data available.
Includes Sun and Moon times and rain image live from BOM.

Check out Ararat Weather on Facebook, Twitter and Google +

Help support ongoing costs by checking out the ads





Follow @AraratWeather